sensor_id;sensor_type;location;lat;lon;timestamp;pressure;altitude;pressure_sealevel;temperature;humidity
7660;BME280;3872;47.902;8.162;2023-09-19T00:02:17;91799.03;;;17.65;100.00
7660;BME280;3872;47.902;8.162;2023-09-19T00:04:44;91797.13;;;17.26;100.00
7660;BME280;3872;47.902;8.162;2023-09-19T00:07:10;91798.31;;;17.80;100.00
7660;BME280;3872;47.902;8.162;2023-09-19T00:09:37;91806.72;;;17.42;100.00
7660;BME280;3872;47.902;8.162;2023-09-19T00:12:05;91809.53;;;17.21;100.00
7660;BME280;3872;47.902;8.162;2023-09-19T00:14:31;91812.44;;;17.04;100.00
7660;BME280;3872;47.902;8.162;2023-09-19T00:17:02;91814.41;;;17.07;100.00
7660;BME280;3872;47.902;8.162;2023-09-19T00:19:33;91811.75;;;17.07;100.00
7660;BME280;3872;47.902;8.162;2023-09-19T00:22:00;91811.16;;;17.78;100.00
7660;BME280;3872;47.902;8.162;2023-09-19T00:24:27;91808.59;;;17.42;100.00
7660;BME280;3872;47.902;8.162;2023-09-19T00:26:54;91801.38;;;17.54;100.00
7660;BME280;3872;47.902;8.162;2023-09-19T00:29:21;91808.16;;;16.75;100.00
7660;BME280;3872;47.902;8.162;2023-09-19T00:31:50;91806.41;;;17.19;100.00
7660;BME280;3872;47.902;8.162;2023-09-19T00:34:18;91811.53;;;17.12;100.00
7660;BME280;3872;47.902;8.162;2023-09-19T00:36:45;91809.88;;;17.08;100.00
7660;BME280;3872;47.902;8.162;2023-09-19T00:39:12;91812.78;;;16.91;100.00
7660;BME280;3872;47.902;8.162;2023-09-19T00:41:38;91810.63;;;17.33;100.00
7660;BME280;3872;47.902;8.162;2023-09-19T00:44:06;91815.13;;;17.44;100.00
7660;BME280;3872;47.902;8.162;2023-09-19T00:46:33;91817.91;;;17.36;100.00
7660;BME280;3872;47.902;8.162;2023-09-19T00:48:59;91810.50;;;18.09;100.00
7660;BME280;3872;47.902;8.162;2023-09-19T00:51:27;91809.50;;;18.45;100.00
7660;BME280;3872;47.902;8.162;2023-09-19T00:53:55;91809.81;;;18.28;100.00
7660;BME280;3872;47.902;8.162;2023-09-19T00:56:22;91820.75;;;16.78;100.00
7660;BME280;3872;47.902;8.162;2023-09-19T00:58:48;91822.72;;;17.18;100.00
7660;BME280;3872;47.902;8.162;2023-09-19T01:01:15;91821.75;;;17.10;100.00
7660;BME280;3872;47.902;8.162;2023-09-19T01:03:44;91812.13;;;16.81;100.00
7660;BME280;3872;47.902;8.162;2023-09-19T01:06:12;91817.00;;;17.04;100.00
7660;BME280;3872;47.902;8.162;2023-09-19T01:08:40;91813.53;;;16.91;100.00
7660;BME280;3872;47.902;8.162;2023-09-19T01:11:13;91818.63;;;16.84;100.00
7660;BME280;3872;47.902;8.162;2023-09-19T01:13:48;91814.19;;;17.25;100.00
7660;BME280;3872;47.902;8.162;2023-09-19T01:16:27;91816.81;;;17.37;100.00
7660;BME280;3872;47.902;8.162;2023-09-19T01:19:07;91819.72;;;17.72;100.00
7660;BME280;3872;47.902;8.162;2023-09-19T01:21:44;91825.50;;;16.85;100.00
7660;BME280;3872;47.902;8.162;2023-09-19T01:27:41;91830.72;;;16.69;100.00
7660;BME280;3872;47.902;8.162;2023-09-19T01:30:18;91825.38;;;17.06;100.00
7660;BME280;3872;47.902;8.162;2023-09-19T01:32:47;91816.50;;;17.14;100.00
7660;BME280;3872;47.902;8.162;2023-09-19T01:35:17;91818.97;;;17.19;100.00
7660;BME280;3872;47.902;8.162;2023-09-19T01:37:44;91814.53;;;17.75;100.00
7660;BME280;3872;47.902;8.162;2023-09-19T01:40:13;91818.91;;;17.83;100.00
7660;BME280;3872;47.902;8.162;2023-09-19T01:42:45;91823.50;;;17.71;100.00
7660;BME280;3872;47.902;8.162;2023-09-19T01:45:13;91826.72;;;17.24;100.00
7660;BME280;3872;47.902;8.162;2023-09-19T01:47:49;91828.53;;;17.48;100.00
7660;BME280;3872;47.902;8.162;2023-09-19T01:50:21;91831.81;;;17.69;100.00
7660;BME280;3872;47.902;8.162;2023-09-19T01:52:54;91837.28;;;16.27;100.00
7660;BME280;3872;47.902;8.162;2023-09-19T01:55:26;91839.28;;;17.51;100.00
7660;BME280;3872;47.902;8.162;2023-09-19T01:58:01;91835.47;;;17.12;100.00
7660;BME280;3872;47.902;8.162;2023-09-19T02:00:32;91842.00;;;17.15;100.00
7660;BME280;3872;47.902;8.162;2023-09-19T02:03:03;91836.66;;;17.39;100.00
7660;BME280;3872;47.902;8.162;2023-09-19T02:05:30;91848.47;;;17.66;100.00
7660;BME280;3872;47.902;8.162;2023-09-19T02:07:58;91851.75;;;16.74;100.00
7660;BME280;3872;47.902;8.162;2023-09-19T02:10:26;91841.19;;;17.27;100.00
7660;BME280;3872;47.902;8.162;2023-09-19T02:12:52;91847.72;;;17.41;100.00
7660;BME280;3872;47.902;8.162;2023-09-19T02:15:19;91844.44;;;16.71;100.00
7660;BME280;3872;47.902;8.162;2023-09-19T02:17:47;91854.19;;;16.34;100.00
7660;BME280;3872;47.902;8.162;2023-09-19T02:20:15;91850.75;;;17.15;100.00
7660;BME280;3872;47.902;8.162;2023-09-19T02:22:42;91839.16;;;17.48;100.00
7660;BME280;3872;47.902;8.162;2023-09-19T02:25:09;91853.41;;;16.67;100.00
7660;BME280;3872;47.902;8.162;2023-09-19T02:27:36;91849.00;;;16.95;100.00
7660;BME280;3872;47.902;8.162;2023-09-19T02:30:04;91851.53;;;17.16;100.00
7660;BME280;3872;47.902;8.162;2023-09-19T02:32:31;91844.88;;;17.22;100.00
7660;BME280;3872;47.902;8.162;2023-09-19T02:35:01;91857.63;;;17.16;100.00
7660;BME280;3872;47.902;8.162;2023-09-19T02:37:31;91852.84;;;17.22;100.00
7660;BME280;3872;47.902;8.162;2023-09-19T02:39:58;91850.84;;;16.70;100.00
7660;BME280;3872;47.902;8.162;2023-09-19T02:42:25;91851.69;;;16.50;100.00
7660;BME280;3872;47.902;8.162;2023-09-19T02:44:51;91858.06;;;16.82;100.00
7660;BME280;3872;47.902;8.162;2023-09-19T02:47:18;91858.88;;;16.37;100.00
7660;BME280;3872;47.902;8.162;2023-09-19T02:49:45;91849.56;;;16.31;100.00
7660;BME280;3872;47.902;8.162;2023-09-19T02:52:11;91853.09;;;16.93;100.00
7660;BME280;3872;47.902;8.162;2023-09-19T02:54:42;91852.63;;;17.39;100.00
7660;BME280;3872;47.902;8.162;2023-09-19T02:57:10;91856.41;;;17.26;100.00
7660;BME280;3872;47.902;8.162;2023-09-19T02:59:39;91848.16;;;17.68;100.00
7660;BME280;3872;47.902;8.162;2023-09-19T03:02:06;91848.84;;;17.28;100.00
7660;BME280;3872;47.902;8.162;2023-09-19T03:04:33;91849.25;;;16.57;100.00
7660;BME280;3872;47.902;8.162;2023-09-19T03:07:00;91847.00;;;16.80;100.00
7660;BME280;3872;47.902;8.162;2023-09-19T03:09:30;91846.00;;;16.97;100.00
7660;BME280;3872;47.902;8.162;2023-09-19T03:11:58;91844.47;;;17.48;100.00
7660;BME280;3872;47.902;8.162;2023-09-19T03:14:25;91863.16;;;16.99;100.00
7660;BME280;3872;47.902;8.162;2023-09-19T03:16:56;91857.50;;;17.37;100.00
7660;BME280;3872;47.902;8.162;2023-09-19T03:19:23;91854.66;;;17.58;100.00
7660;BME280;3872;47.902;8.162;2023-09-19T03:21:51;91868.22;;;16.23;100.00
7660;BME280;3872;47.902;8.162;2023-09-19T03:24:19;91861.50;;;16.70;100.00
7660;BME280;3872;47.902;8.162;2023-09-19T03:26:45;91868.22;;;16.23;100.00
7660;BME280;3872;47.902;8.162;2023-09-19T03:29:14;91861.06;;;16.35;100.00
7660;BME280;3872;47.902;8.162;2023-09-19T03:31:43;91860.41;;;16.26;100.00
7660;BME280;3872;47.902;8.162;2023-09-19T03:34:11;91858.00;;;16.58;100.00
7660;BME280;3872;47.902;8.162;2023-09-19T03:36:38;91854.63;;;17.06;100.00
7660;BME280;3872;47.902;8.162;2023-09-19T03:39:06;91850.09;;;17.06;100.00
7660;BME280;3872;47.902;8.162;2023-09-19T03:41:33;91846.09;;;17.25;100.00
7660;BME280;3872;47.902;8.162;2023-09-19T03:44:02;91848.72;;;17.37;100.00
7660;BME280;3872;47.902;8.162;2023-09-19T03:46:30;91849.28;;;17.42;100.00
7660;BME280;3872;47.902;8.162;2023-09-19T03:48:58;91854.94;;;17.29;100.00
7660;BME280;3872;47.902;8.162;2023-09-19T03:51:25;91856.53;;;17.17;100.00
7660;BME280;3872;47.902;8.162;2023-09-19T03:53:51;91862.47;;;16.21;100.00
7660;BME280;3872;47.902;8.162;2023-09-19T03:56:18;91860.16;;;16.19;100.00
7660;BME280;3872;47.902;8.162;2023-09-19T03:58:45;91856.97;;;16.95;100.00
7660;BME280;3872;47.902;8.162;2023-09-19T04:01:11;91860.94;;;16.65;100.00
7660;BME280;3872;47.902;8.162;2023-09-19T04:03:40;91847.66;;;16.89;100.00
7660;BME280;3872;47.902;8.162;2023-09-19T04:06:12;91855.31;;;17.03;100.00
7660;BME280;3872;47.902;8.162;2023-09-19T04:08:39;91860.31;;;17.04;100.00
7660;BME280;3872;47.902;8.162;2023-09-19T04:11:05;91863.50;;;16.61;100.00
7660;BME280;3872;47.902;8.162;2023-09-19T04:13:32;91857.72;;;16.71;100.00
7660;BME280;3872;47.902;8.162;2023-09-19T04:15:58;91855.63;;;16.77;100.00
7660;BME280;3872;47.902;8.162;2023-09-19T04:18:25;91862.28;;;17.32;100.00
7660;BME280;3872;47.902;8.162;2023-09-19T04:20:54;91859.22;;;17.57;100.00
7660;BME280;3872;47.902;8.162;2023-09-19T04:23:21;91857.63;;;17.81;100.00
7660;BME280;3872;47.902;8.162;2023-09-19T04:25:48;91877.91;;;17.09;100.00
7660;BME280;3872;47.902;8.162;2023-09-19T04:28:14;91869.59;;;17.22;100.00
7660;BME280;3872;47.902;8.162;2023-09-19T04:30:42;91865.63;;;17.81;100.00
7660;BME280;3872;47.902;8.162;2023-09-19T04:33:09;91864.28;;;18.15;100.00
7660;BME280;3872;47.902;8.162;2023-09-19T04:35:35;91866.78;;;18.23;100.00
7660;BME280;3872;47.902;8.162;2023-09-19T04:38:05;91870.09;;;18.32;100.00
7660;BME280;3872;47.902;8.162;2023-09-19T04:40:32;91875.22;;;18.25;100.00
7660;BME280;3872;47.902;8.162;2023-09-19T04:42:59;91880.03;;;17.80;100.00
7660;BME280;3872;47.902;8.162;2023-09-19T04:45:27;91874.53;;;18.00;100.00
7660;BME280;3872;47.902;8.162;2023-09-19T04:47:54;91886.59;;;17.82;100.00
7660;BME280;3872;47.902;8.162;2023-09-19T04:50:21;91883.66;;;17.47;100.00
7660;BME280;3872;47.902;8.162;2023-09-19T04:52:50;91883.88;;;18.22;100.00
7660;BME280;3872;47.902;8.162;2023-09-19T04:55:18;91886.94;;;17.56;100.00
7660;BME280;3872;47.902;8.162;2023-09-19T04:57:47;91891.06;;;17.54;100.00
7660;BME280;3872;47.902;8.162;2023-09-19T05:00:14;91881.59;;;17.81;100.00
7660;BME280;3872;47.902;8.162;2023-09-19T05:02:43;91880.41;;;17.42;100.00
7660;BME280;3872;47.902;8.162;2023-09-19T05:05:10;91888.84;;;16.71;100.00
7660;BME280;3872;47.902;8.162;2023-09-19T05:07:39;91895.28;;;16.94;100.00
7660;BME280;3872;47.902;8.162;2023-09-19T05:10:06;91908.81;;;17.38;100.00
7660;BME280;3872;47.902;8.162;2023-09-19T05:12:35;91907.44;;;17.56;100.00
7660;BME280;3872;47.902;8.162;2023-09-19T05:15:02;91913.59;;;17.32;100.00
7660;BME280;3872;47.902;8.162;2023-09-19T05:17:29;91910.69;;;16.89;100.00
7660;BME280;3872;47.902;8.162;2023-09-19T05:19:56;91914.69;;;17.19;100.00
7660;BME280;3872;47.902;8.162;2023-09-19T05:22:25;91915.97;;;17.86;100.00
7660;BME280;3872;47.902;8.162;2023-09-19T05:24:52;91918.13;;;17.68;100.00
7660;BME280;3872;47.902;8.162;2023-09-19T05:27:19;91911.13;;;17.76;100.00
7660;BME280;3872;47.902;8.162;2023-09-19T05:29:47;91915.69;;;16.90;100.00
7660;BME280;3872;47.902;8.162;2023-09-19T05:32:16;91919.34;;;17.10;100.00
7660;BME280;3872;47.902;8.162;2023-09-19T05:34:44;91917.44;;;17.35;100.00
7660;BME280;3872;47.902;8.162;2023-09-19T05:37:12;91927.53;;;17.29;100.00
7660;BME280;3872;47.902;8.162;2023-09-19T05:39:41;91924.53;;;16.94;100.00
7660;BME280;3872;47.902;8.162;2023-09-19T05:42:08;91932.63;;;17.58;100.00
7660;BME280;3872;47.902;8.162;2023-09-19T05:44:34;91934.25;;;17.87;100.00
7660;BME280;3872;47.902;8.162;2023-09-19T05:47:03;91931.59;;;17.87;100.00
7660;BME280;3872;47.902;8.162;2023-09-19T05:49:30;91939.09;;;18.10;100.00
7660;BME280;3872;47.902;8.162;2023-09-19T05:51:56;91939.25;;;17.89;100.00
7660;BME280;3872;47.902;8.162;2023-09-19T05:54:24;91943.16;;;17.79;100.00
7660;BME280;3872;47.902;8.162;2023-09-19T05:56:51;91939.81;;;18.22;100.00
7660;BME280;3872;47.902;8.162;2023-09-19T05:59:18;91939.16;;;18.13;100.00
7660;BME280;3872;47.902;8.162;2023-09-19T06:01:45;91953.19;;;17.98;100.00
7660;BME280;3872;47.902;8.162;2023-09-19T06:04:13;91956.56;;;17.46;100.00
7660;BME280;3872;47.902;8.162;2023-09-19T06:06:40;91956.53;;;17.95;100.00
7660;BME280;3872;47.902;8.162;2023-09-19T06:09:07;91955.16;;;18.13;100.00
7660;BME280;3872;47.902;8.162;2023-09-19T06:11:34;91956.31;;;18.40;100.00
7660;BME280;3872;47.902;8.162;2023-09-19T06:14:01;91968.19;;;18.03;100.00
7660;BME280;3872;47.902;8.162;2023-09-19T06:16:28;91961.25;;;18.14;100.00
7660;BME280;3872;47.902;8.162;2023-09-19T06:18:57;91953.59;;;18.24;100.00
7660;BME280;3872;47.902;8.162;2023-09-19T06:21:25;91959.75;;;18.00;100.00
7660;BME280;3872;47.902;8.162;2023-09-19T06:23:53;91955.84;;;18.10;100.00
7660;BME280;3872;47.902;8.162;2023-09-19T06:26:19;91964.31;;;17.88;100.00
7660;BME280;3872;47.902;8.162;2023-09-19T06:28:46;91968.19;;;17.42;100.00
7660;BME280;3872;47.902;8.162;2023-09-19T06:31:13;91965.44;;;17.87;100.00
7660;BME280;3872;47.902;8.162;2023-09-19T06:33:39;91959.56;;;17.81;100.00
7660;BME280;3872;47.902;8.162;2023-09-19T06:36:06;91966.31;;;17.42;100.00
7660;BME280;3872;47.902;8.162;2023-09-19T06:38:34;91964.78;;;17.78;100.00
7660;BME280;3872;47.902;8.162;2023-09-19T06:41:02;91963.22;;;17.89;100.00
7660;BME280;3872;47.902;8.162;2023-09-19T06:43:30;91962.66;;;17.95;100.00
7660;BME280;3872;47.902;8.162;2023-09-19T06:45:59;91971.16;;;18.01;100.00
7660;BME280;3872;47.902;8.162;2023-09-19T06:48:26;91969.03;;;18.07;100.00
7660;BME280;3872;47.902;8.162;2023-09-19T06:50:54;91973.38;;;18.11;100.00
7660;BME280;3872;47.902;8.162;2023-09-19T06:53:21;91974.34;;;18.19;100.00
7660;BME280;3872;47.902;8.162;2023-09-19T06:55:50;91971.81;;;18.78;98.90
7660;BME280;3872;47.902;8.162;2023-09-19T06:58:17;91972.28;;;19.27;96.90
7660;BME280;3872;47.902;8.162;2023-09-19T07:00:44;91973.56;;;19.33;94.15
7660;BME280;3872;47.902;8.162;2023-09-19T07:03:13;91969.97;;;19.41;86.76
7660;BME280;3872;47.902;8.162;2023-09-19T07:05:41;91979.69;;;19.18;90.20
7660;BME280;3872;47.902;8.162;2023-09-19T07:08:09;91980.78;;;18.58;97.94
7660;BME280;3872;47.902;8.162;2023-09-19T07:10:38;91985.22;;;17.62;100.00
7660;BME280;3872;47.902;8.162;2023-09-19T07:13:08;91987.72;;;17.94;100.00
7660;BME280;3872;47.902;8.162;2023-09-19T07:15:37;91982.81;;;18.09;96.15
7660;BME280;3872;47.902;8.162;2023-09-19T07:18:05;91989.28;;;18.35;96.51
7660;BME280;3872;47.902;8.162;2023-09-19T07:20:34;91998.28;;;18.31;99.88
7660;BME280;3872;47.902;8.162;2023-09-19T07:23:01;91995.22;;;18.57;91.56
7660;BME280;3872;47.902;8.162;2023-09-19T07:25:28;91998.16;;;17.75;100.00
7660;BME280;3872;47.902;8.162;2023-09-19T07:27:55;92000.56;;;19.00;86.96
7660;BME280;3872;47.902;8.162;2023-09-19T07:30:26;91997.03;;;18.81;93.56
7660;BME280;3872;47.902;8.162;2023-09-19T07:32:53;91997.75;;;18.65;94.94
7660;BME280;3872;47.902;8.162;2023-09-19T07:35:20;92007.31;;;18.14;98.88
7660;BME280;3872;47.902;8.162;2023-09-19T07:37:46;91997.84;;;18.29;94.01
7660;BME280;3872;47.902;8.162;2023-09-19T07:40:14;91999.19;;;19.50;84.01
7660;BME280;3872;47.902;8.162;2023-09-19T07:42:41;92001.03;;;19.34;80.51
7660;BME280;3872;47.902;8.162;2023-09-19T07:45:10;91998.44;;;19.22;79.15
7660;BME280;3872;47.902;8.162;2023-09-19T07:47:43;92001.91;;;19.22;77.15
7660;BME280;3872;47.902;8.162;2023-09-19T07:50:10;92011.19;;;18.05;89.06
7660;BME280;3872;47.902;8.162;2023-09-19T07:52:36;92005.63;;;18.62;83.36
7660;BME280;3872;47.902;8.162;2023-09-19T07:55:05;92009.25;;;18.82;83.91
7660;BME280;3872;47.902;8.162;2023-09-19T07:57:36;92016.28;;;18.74;80.08
7660;BME280;3872;47.902;8.162;2023-09-19T08:00:04;92027.41;;;18.52;82.87
7660;BME280;3872;47.902;8.162;2023-09-19T08:02:37;92020.84;;;18.21;86.55
7660;BME280;3872;47.902;8.162;2023-09-19T08:05:05;92033.63;;;18.68;85.78
7660;BME280;3872;47.902;8.162;2023-09-19T08:07:32;92027.59;;;18.71;83.93
7660;BME280;3872;47.902;8.162;2023-09-19T08:09:59;92039.44;;;18.46;82.01
7660;BME280;3872;47.902;8.162;2023-09-19T08:12:25;92036.94;;;18.65;81.02
7660;BME280;3872;47.902;8.162;2023-09-19T08:14:52;92044.84;;;18.49;81.80
7660;BME280;3872;47.902;8.162;2023-09-19T08:17:20;92039.16;;;17.50;84.45
7660;BME280;3872;47.902;8.162;2023-09-19T08:19:48;92050.09;;;18.46;76.10
7660;BME280;3872;47.902;8.162;2023-09-19T08:22:19;92050.03;;;18.70;77.38
7660;BME280;3872;47.902;8.162;2023-09-19T08:24:47;92047.22;;;18.78;74.24
7660;BME280;3872;47.902;8.162;2023-09-19T08:27:14;92054.22;;;18.31;77.08
7660;BME280;3872;47.902;8.162;2023-09-19T08:29:43;92045.91;;;19.00;74.74
7660;BME280;3872;47.902;8.162;2023-09-19T08:32:10;92060.41;;;18.47;75.31
7660;BME280;3872;47.902;8.162;2023-09-19T08:34:36;92060.41;;;18.47;78.73
7660;BME280;3872;47.902;8.162;2023-09-19T08:37:04;92067.69;;;17.16;89.69
7660;BME280;3872;47.902;8.162;2023-09-19T08:39:32;92060.03;;;18.09;82.21
7660;BME280;3872;47.902;8.162;2023-09-19T08:42:01;92064.34;;;17.77;88.69
7660;BME280;3872;47.902;8.162;2023-09-19T08:44:28;92068.63;;;18.42;81.66
7660;BME280;3872;47.902;8.162;2023-09-19T08:47:00;92071.03;;;17.83;84.48
7660;BME280;3872;47.902;8.162;2023-09-19T08:49:37;92070.00;;;18.24;85.40
7660;BME280;3872;47.902;8.162;2023-09-19T08:52:13;92061.25;;;19.19;77.90
7660;BME280;3872;47.902;8.162;2023-09-19T08:54:44;92067.59;;;19.42;74.49
7660;BME280;3872;47.902;8.162;2023-09-19T08:57:12;92065.41;;;18.89;78.28
7660;BME280;3872;47.902;8.162;2023-09-19T08:59:47;92075.06;;;18.41;80.04
7660;BME280;3872;47.902;8.162;2023-09-19T09:02:15;92078.81;;;18.52;81.95
7660;BME280;3872;47.902;8.162;2023-09-19T09:04:45;92084.28;;;18.44;83.67
7660;BME280;3872;47.902;8.162;2023-09-19T09:07:12;92081.53;;;18.40;80.20
7660;BME280;3872;47.902;8.162;2023-09-19T09:09:39;92079.34;;;18.70;77.50
7660;BME280;3872;47.902;8.162;2023-09-19T09:12:11;92081.31;;;19.13;73.34
7660;BME280;3872;47.902;8.162;2023-09-19T09:14:38;92083.03;;;18.65;78.90
7660;BME280;3872;47.902;8.162;2023-09-19T09:17:05;92085.19;;;19.15;75.82
7660;BME280;3872;47.902;8.162;2023-09-19T09:19:32;92088.97;;;18.22;79.07
7660;BME280;3872;47.902;8.162;2023-09-19T09:22:06;92084.03;;;19.44;72.38
7660;BME280;3872;47.902;8.162;2023-09-19T09:24:33;92078.56;;;18.17;79.72
7660;BME280;3872;47.902;8.162;2023-09-19T09:27:03;92082.91;;;17.28;88.86
7660;BME280;3872;47.902;8.162;2023-09-19T09:29:44;92095.19;;;17.78;86.81
7660;BME280;3872;47.902;8.162;2023-09-19T09:32:19;92088.25;;;18.62;79.88
7660;BME280;3872;47.902;8.162;2023-09-19T09:34:49;92083.44;;;18.80;75.52
7660;BME280;3872;47.902;8.162;2023-09-19T09:37:16;92081.50;;;18.52;79.88
7660;BME280;3872;47.902;8.162;2023-09-19T09:39:51;92083.06;;;18.93;77.80
7660;BME280;3872;47.902;8.162;2023-09-19T09:42:35;92083.53;;;19.39;72.72
7660;BME280;3872;47.902;8.162;2023-09-19T09:45:17;92087.94;;;20.95;65.82
7660;BME280;3872;47.902;8.162;2023-09-19T09:47:45;92077.34;;;20.83;63.04
7660;BME280;3872;47.902;8.162;2023-09-19T09:50:26;92081.03;;;20.94;65.11
7660;BME280;3872;47.902;8.162;2023-09-19T09:53:19;92082.41;;;19.12;72.55
7660;BME280;3872;47.902;8.162;2023-09-19T09:56:00;92090.00;;;18.82;74.58
7660;BME280;3872;47.902;8.162;2023-09-19T09:58:28;92080.19;;;20.36;66.11
7660;BME280;3872;47.902;8.162;2023-09-19T10:00:59;92080.06;;;20.32;68.07
7660;BME280;3872;47.902;8.162;2023-09-19T10:03:34;92085.19;;;19.15;70.55
7660;BME280;3872;47.902;8.162;2023-09-19T10:06:06;92082.63;;;19.35;71.73
7660;BME280;3872;47.902;8.162;2023-09-19T10:09:01;92086.59;;;18.97;70.04
7660;BME280;3872;47.902;8.162;2023-09-19T10:11:43;92084.47;;;18.63;70.64
7660;BME280;3872;47.902;8.162;2023-09-19T10:14:11;92075.91;;;20.00;64.98
7660;BME280;3872;47.902;8.162;2023-09-19T10:16:45;92076.13;;;20.61;60.79
7660;BME280;3872;47.902;8.162;2023-09-19T10:19:16;92071.63;;;20.30;60.21
7660;BME280;3872;47.902;8.162;2023-09-19T10:21:46;92075.31;;;21.15;57.53
7660;BME280;3872;47.902;8.162;2023-09-19T10:24:15;92072.72;;;19.63;60.75
7660;BME280;3872;47.902;8.162;2023-09-19T10:26:43;92069.84;;;20.35;60.22
7660;BME280;3872;47.902;8.162;2023-09-19T10:29:13;92074.56;;;20.60;63.57
7660;BME280;3872;47.902;8.162;2023-09-19T10:31:44;92075.22;;;20.03;64.22
7660;BME280;3872;47.902;8.162;2023-09-19T10:34:14;92079.66;;;20.30;57.41
7660;BME280;3872;47.902;8.162;2023-09-19T10:36:44;92069.59;;;20.08;58.80
7660;BME280;3872;47.902;8.162;2023-09-19T10:39:14;92070.38;;;20.59;57.96
7660;BME280;3872;47.902;8.162;2023-09-19T10:41:49;92064.34;;;20.82;56.57
7660;BME280;3872;47.902;8.162;2023-09-19T10:44:21;92060.13;;;21.38;53.71
7660;BME280;3872;47.902;8.162;2023-09-19T10:46:49;92066.59;;;21.37;55.40
7660;BME280;3872;47.902;8.162;2023-09-19T10:49:18;92068.81;;;20.08;57.81
7660;BME280;3872;47.902;8.162;2023-09-19T10:51:46;92066.34;;;19.68;61.02
7660;BME280;3872;47.902;8.162;2023-09-19T10:54:16;92067.75;;;21.17;55.94
7660;BME280;3872;47.902;8.162;2023-09-19T10:56:48;92067.28;;;20.77;56.48
7660;BME280;3872;47.902;8.162;2023-09-19T10:59:17;92064.97;;;20.40;58.62
7660;BME280;3872;47.902;8.162;2023-09-19T11:01:45;92059.34;;;20.99;53.85
7660;BME280;3872;47.902;8.162;2023-09-19T11:04:26;92063.09;;;20.25;57.76
7660;BME280;3872;47.902;8.162;2023-09-19T11:07:05;92073.16;;;19.65;60.21
7660;BME280;3872;47.902;8.162;2023-09-19T11:09:45;92064.09;;;20.01;60.91
7660;BME280;3872;47.902;8.162;2023-09-19T11:12:22;92060.22;;;19.08;62.42
7660;BME280;3872;47.902;8.162;2023-09-19T11:18:53;92060.97;;;19.99;57.96
7660;BME280;3872;47.902;8.162;2023-09-19T11:21:42;92060.97;;;19.99;59.17
7660;BME280;3872;47.902;8.162;2023-09-19T11:24:30;92048.91;;;21.33;52.96
7660;BME280;3872;47.902;8.162;2023-09-19T11:27:12;92051.19;;;21.76;51.10
7660;BME280;3872;47.902;8.162;2023-09-19T11:29:40;92051.22;;;21.15;53.50
7660;BME280;3872;47.902;8.162;2023-09-19T11:32:07;92053.81;;;20.54;54.09
7660;BME280;3872;47.902;8.162;2023-09-19T11:34:42;92046.56;;;21.96;50.17
7660;BME280;3872;47.902;8.162;2023-09-19T11:40:29;92044.13;;;21.65;50.15
7660;BME280;3872;47.902;8.162;2023-09-19T11:42:56;92045.25;;;21.86;51.02
7660;BME280;3872;47.902;8.162;2023-09-19T11:48:44;92038.06;;;20.68;51.98
7660;BME280;3872;47.902;8.162;2023-09-19T11:51:15;92031.41;;;22.34;48.06
7660;BME280;3872;47.902;8.162;2023-09-19T11:53:48;92018.66;;;23.17;46.96
7660;BME280;3872;47.902;8.162;2023-09-19T11:56:18;92028.47;;;23.72;45.12
7660;BME280;3872;47.902;8.162;2023-09-19T11:58:46;92035.25;;;23.26;45.25
7660;BME280;3872;47.902;8.162;2023-09-19T12:01:15;92025.00;;;23.35;44.96
7660;BME280;3872;47.902;8.162;2023-09-19T12:03:47;92029.81;;;21.34;48.69
7660;BME280;3872;47.902;8.162;2023-09-19T12:06:18;92027.09;;;22.52;49.59
7660;BME280;3872;47.902;8.162;2023-09-19T12:08:44;92025.69;;;21.60;50.57
7660;BME280;3872;47.902;8.162;2023-09-19T12:11:17;92026.97;;;20.66;52.74
7660;BME280;3872;47.902;8.162;2023-09-19T12:13:46;92029.69;;;20.69;50.96
7660;BME280;3872;47.902;8.162;2023-09-19T12:16:15;92021.31;;;21.09;51.26
7660;BME280;3872;47.902;8.162;2023-09-19T12:18:45;92027.03;;;20.50;52.90
7660;BME280;3872;47.902;8.162;2023-09-19T12:21:24;92028.19;;;21.10;51.52
7660;BME280;3872;47.902;8.162;2023-09-19T12:24:13;92029.53;;;21.62;51.38
7660;BME280;3872;47.902;8.162;2023-09-19T12:26:44;92032.22;;;20.43;55.45
7660;BME280;3872;47.902;8.162;2023-09-19T12:29:15;92030.19;;;20.75;54.63
7660;BME280;3872;47.902;8.162;2023-09-19T12:31:50;92035.66;;;19.30;59.62
7660;BME280;3872;47.902;8.162;2023-09-19T12:34:19;92029.50;;;21.39;52.57
7660;BME280;3872;47.902;8.162;2023-09-19T12:36:46;92025.34;;;21.00;53.33
7660;BME280;3872;47.902;8.162;2023-09-19T12:39:23;92020.94;;;21.99;50.61
7660;BME280;3872;47.902;8.162;2023-09-19T12:41:53;92014.06;;;22.54;48.98
7660;BME280;3872;47.902;8.162;2023-09-19T12:44:20;92017.31;;;21.00;51.65
7660;BME280;3872;47.902;8.162;2023-09-19T12:46:50;92009.59;;;21.37;51.25
7660;BME280;3872;47.902;8.162;2023-09-19T12:49:18;92020.59;;;20.36;55.55
7660;BME280;3872;47.902;8.162;2023-09-19T12:51:45;92011.56;;;22.12;50.23
7660;BME280;3872;47.902;8.162;2023-09-19T12:54:12;92015.75;;;22.65;48.96
7660;BME280;3872;47.902;8.162;2023-09-19T12:56:40;92005.25;;;22.83;48.86
7660;BME280;3872;47.902;8.162;2023-09-19T12:59:12;92009.75;;;22.46;50.19
7660;BME280;3872;47.902;8.162;2023-09-19T13:01:40;92000.66;;;22.80;48.97
7660;BME280;3872;47.902;8.162;2023-09-19T13:04:12;92000.00;;;23.31;47.48
7660;BME280;3872;47.902;8.162;2023-09-19T13:06:40;91999.97;;;22.60;50.62
7660;BME280;3872;47.902;8.162;2023-09-19T13:09:09;91992.19;;;23.52;48.09
7660;BME280;3872;47.902;8.162;2023-09-19T13:11:37;91988.78;;;23.55;46.57
7660;BME280;3872;47.902;8.162;2023-09-19T13:14:20;92003.53;;;23.75;44.74
7660;BME280;3872;47.902;8.162;2023-09-19T13:16:56;91998.44;;;22.89;48.52
7660;BME280;3872;47.902;8.162;2023-09-19T13:19:39;91987.34;;;23.68;44.43
7660;BME280;3872;47.902;8.162;2023-09-19T13:22:36;91999.38;;;21.92;48.21
7660;BME280;3872;47.902;8.162;2023-09-19T13:25:04;91984.41;;;23.88;43.88
7660;BME280;3872;47.902;8.162;2023-09-19T13:27:32;91987.06;;;22.40;45.97
7660;BME280;3872;47.902;8.162;2023-09-19T13:30:00;91977.13;;;23.03;44.90
7660;BME280;3872;47.902;8.162;2023-09-19T13:32:26;91976.13;;;22.52;45.61
7660;BME280;3872;47.902;8.162;2023-09-19T13:34:53;91976.13;;;23.56;43.44
7660;BME280;3872;47.902;8.162;2023-09-19T13:37:20;91969.94;;;22.78;45.79
7660;BME280;3872;47.902;8.162;2023-09-19T13:39:47;91964.94;;;23.50;44.93
7660;BME280;3872;47.902;8.162;2023-09-19T13:42:15;91978.50;;;22.60;47.57
7660;BME280;3872;47.902;8.162;2023-09-19T13:44:43;91974.78;;;22.39;49.24